sensor_id;sensor_type;location;lat;lon;timestamp;P1;durP1;ratioP1;P2;durP2;ratioP2
5456;SDS011;2751;49.802;9.944;2023-02-15T00:01:43;44.10;;;18.80;;
5456;SDS011;2751;49.802;9.944;2023-02-15T00:04:12;39.27;;;19.10;;
5456;SDS011;2751;49.802;9.944;2023-02-15T00:06:40;35.93;;;17.33;;
5456;SDS011;2751;49.802;9.944;2023-02-15T00:09:07;44.20;;;19.23;;
5456;SDS011;2751;49.802;9.944;2023-02-15T00:11:35;44.33;;;20.07;;
5456;SDS011;2751;49.802;9.944;2023-02-15T00:14:11;39.50;;;18.90;;
5456;SDS011;2751;49.802;9.944;2023-02-15T00:16:40;38.57;;;19.90;;
5456;SDS011;2751;49.802;9.944;2023-02-15T00:19:08;35.23;;;19.90;;
5456;SDS011;2751;49.802;9.944;2023-02-15T00:21:36;37.97;;;18.60;;
5456;SDS011;2751;49.802;9.944;2023-02-15T00:24:05;41.13;;;19.80;;
5456;SDS011;2751;49.802;9.944;2023-02-15T00:26:34;33.33;;;17.70;;
5456;SDS011;2751;49.802;9.944;2023-02-15T00:29:01;38.33;;;19.60;;
5456;SDS011;2751;49.802;9.944;2023-02-15T00:31:30;39.50;;;20.80;;
5456;SDS011;2751;49.802;9.944;2023-02-15T00:34:02;35.30;;;17.80;;
5456;SDS011;2751;49.802;9.944;2023-02-15T00:36:29;37.27;;;18.97;;
5456;SDS011;2751;49.802;9.944;2023-02-15T00:38:56;33.40;;;16.37;;
5456;SDS011;2751;49.802;9.944;2023-02-15T00:41:23;35.17;;;18.07;;
5456;SDS011;2751;49.802;9.944;2023-02-15T00:43:50;32.30;;;16.90;;
5456;SDS011;2751;49.802;9.944;2023-02-15T00:46:17;32.57;;;16.20;;
5456;SDS011;2751;49.802;9.944;2023-02-15T00:48:44;33.20;;;17.43;;
5456;SDS011;2751;49.802;9.944;2023-02-15T00:51:12;30.93;;;14.90;;
5456;SDS011;2751;49.802;9.944;2023-02-15T00:53:39;36.07;;;17.97;;
5456;SDS011;2751;49.802;9.944;2023-02-15T00:56:06;31.83;;;17.37;;
5456;SDS011;2751;49.802;9.944;2023-02-15T00:58:33;31.73;;;17.93;;
5456;SDS011;2751;49.802;9.944;2023-02-15T01:01:02;28.90;;;16.47;;
5456;SDS011;2751;49.802;9.944;2023-02-15T01:03:31;32.50;;;16.43;;
5456;SDS011;2751;49.802;9.944;2023-02-15T01:05:58;32.53;;;17.60;;
5456;SDS011;2751;49.802;9.944;2023-02-15T01:08:26;28.00;;;16.10;;
5456;SDS011;2751;49.802;9.944;2023-02-15T01:10:53;25.07;;;13.60;;
5456;SDS011;2751;49.802;9.944;2023-02-15T01:13:20;36.10;;;17.00;;
5456;SDS011;2751;49.802;9.944;2023-02-15T01:15:52;28.00;;;15.47;;
5456;SDS011;2751;49.802;9.944;2023-02-15T01:18:19;27.80;;;15.33;;
5456;SDS011;2751;49.802;9.944;2023-02-15T01:20:46;27.13;;;15.10;;
5456;SDS011;2751;49.802;9.944;2023-02-15T01:23:13;29.70;;;15.40;;
5456;SDS011;2751;49.802;9.944;2023-02-15T01:25:41;30.30;;;16.37;;
5456;SDS011;2751;49.802;9.944;2023-02-15T01:28:08;31.10;;;15.70;;
5456;SDS011;2751;49.802;9.944;2023-02-15T01:30:35;34.40;;;17.53;;
5456;SDS011;2751;49.802;9.944;2023-02-15T01:33:02;27.77;;;15.40;;
5456;SDS011;2751;49.802;9.944;2023-02-15T01:35:29;29.40;;;15.80;;
5456;SDS011;2751;49.802;9.944;2023-02-15T01:37:56;28.07;;;15.50;;
5456;SDS011;2751;49.802;9.944;2023-02-15T01:40:23;29.93;;;15.93;;
5456;SDS011;2751;49.802;9.944;2023-02-15T01:42:52;30.00;;;13.80;;
5456;SDS011;2751;49.802;9.944;2023-02-15T01:45:21;27.03;;;14.63;;
5456;SDS011;2751;49.802;9.944;2023-02-15T01:47:54;28.50;;;15.60;;
5456;SDS011;2751;49.802;9.944;2023-02-15T01:50:25;28.20;;;15.13;;
5456;SDS011;2751;49.802;9.944;2023-02-15T01:52:58;27.27;;;15.00;;
5456;SDS011;2751;49.802;9.944;2023-02-15T01:55:29;28.70;;;14.63;;
5456;SDS011;2751;49.802;9.944;2023-02-15T01:58:00;26.47;;;14.87;;
5456;SDS011;2751;49.802;9.944;2023-02-15T02:00:27;26.90;;;13.87;;
5456;SDS011;2751;49.802;9.944;2023-02-15T02:02:55;33.23;;;16.00;;
5456;SDS011;2751;49.802;9.944;2023-02-15T02:05:23;28.53;;;15.43;;
5456;SDS011;2751;49.802;9.944;2023-02-15T02:07:51;24.40;;;14.20;;
5456;SDS011;2751;49.802;9.944;2023-02-15T02:10:21;27.43;;;14.07;;
5456;SDS011;2751;49.802;9.944;2023-02-15T02:12:51;26.03;;;14.87;;
5456;SDS011;2751;49.802;9.944;2023-02-15T02:15:23;25.77;;;14.97;;
5456;SDS011;2751;49.802;9.944;2023-02-15T02:17:55;28.73;;;16.10;;
5456;SDS011;2751;49.802;9.944;2023-02-15T02:20:44;27.40;;;14.33;;
5456;SDS011;2751;49.802;9.944;2023-02-15T02:23:25;25.00;;;13.10;;
5456;SDS011;2751;49.802;9.944;2023-02-15T02:35:40;28.67;;;15.77;;
5456;SDS011;2751;49.802;9.944;2023-02-15T02:38:15;25.20;;;14.20;;
5456;SDS011;2751;49.802;9.944;2023-02-15T02:40:50;32.37;;;15.63;;
5456;SDS011;2751;49.802;9.944;2023-02-15T02:43:28;24.00;;;13.40;;
5456;SDS011;2751;49.802;9.944;2023-02-15T02:46:00;26.33;;;15.17;;
5456;SDS011;2751;49.802;9.944;2023-02-15T02:48:32;22.60;;;12.73;;
5456;SDS011;2751;49.802;9.944;2023-02-15T02:51:01;23.23;;;13.27;;
5456;SDS011;2751;49.802;9.944;2023-02-15T02:53:29;25.10;;;13.83;;
5456;SDS011;2751;49.802;9.944;2023-02-15T02:55:58;24.43;;;14.57;;
5456;SDS011;2751;49.802;9.944;2023-02-15T02:58:29;23.83;;;13.20;;
5456;SDS011;2751;49.802;9.944;2023-02-15T03:01:02;24.37;;;15.00;;
5456;SDS011;2751;49.802;9.944;2023-02-15T03:03:36;23.33;;;11.80;;
5456;SDS011;2751;49.802;9.944;2023-02-15T03:06:07;27.10;;;14.00;;
5456;SDS011;2751;49.802;9.944;2023-02-15T03:08:40;25.30;;;13.87;;
5456;SDS011;2751;49.802;9.944;2023-02-15T03:11:09;22.37;;;13.57;;
5456;SDS011;2751;49.802;9.944;2023-02-15T03:13:38;21.93;;;13.83;;
5456;SDS011;2751;49.802;9.944;2023-02-15T03:16:06;23.57;;;13.00;;
5456;SDS011;2751;49.802;9.944;2023-02-15T03:18:54;25.70;;;13.23;;
5456;SDS011;2751;49.802;9.944;2023-02-15T03:21:27;26.40;;;13.73;;
5456;SDS011;2751;49.802;9.944;2023-02-15T03:24:01;26.53;;;14.20;;
5456;SDS011;2751;49.802;9.944;2023-02-15T03:26:33;26.40;;;14.80;;
5456;SDS011;2751;49.802;9.944;2023-02-15T03:29:02;25.80;;;14.60;;
5456;SDS011;2751;49.802;9.944;2023-02-15T03:31:33;23.03;;;13.83;;
5456;SDS011;2751;49.802;9.944;2023-02-15T03:34:04;25.00;;;13.60;;
5456;SDS011;2751;49.802;9.944;2023-02-15T03:36:36;21.87;;;12.87;;
5456;SDS011;2751;49.802;9.944;2023-02-15T03:39:12;19.50;;;12.47;;
5456;SDS011;2751;49.802;9.944;2023-02-15T03:41:45;16.83;;;10.07;;
5456;SDS011;2751;49.802;9.944;2023-02-15T03:44:17;23.00;;;13.30;;
5456;SDS011;2751;49.802;9.944;2023-02-15T03:46:50;21.90;;;13.40;;
5456;SDS011;2751;49.802;9.944;2023-02-15T03:49:22;24.90;;;13.80;;
5456;SDS011;2751;49.802;9.944;2023-02-15T03:51:56;26.90;;;14.57;;
5456;SDS011;2751;49.802;9.944;2023-02-15T03:54:25;22.90;;;12.77;;
5456;SDS011;2751;49.802;9.944;2023-02-15T03:57:10;23.57;;;13.47;;
5456;SDS011;2751;49.802;9.944;2023-02-15T03:59:56;21.87;;;13.43;;
5456;SDS011;2751;49.802;9.944;2023-02-15T04:02:44;24.00;;;13.77;;
5456;SDS011;2751;49.802;9.944;2023-02-15T04:05:20;19.70;;;13.10;;
5456;SDS011;2751;49.802;9.944;2023-02-15T04:07:48;22.00;;;12.60;;
5456;SDS011;2751;49.802;9.944;2023-02-15T04:10:15;23.87;;;14.80;;
5456;SDS011;2751;49.802;9.944;2023-02-15T04:13:00;21.30;;;14.17;;
5456;SDS011;2751;49.802;9.944;2023-02-15T04:15:26;19.87;;;12.20;;
5456;SDS011;2751;49.802;9.944;2023-02-15T04:18:11;22.33;;;13.17;;
5456;SDS011;2751;49.802;9.944;2023-02-15T04:20:38;23.80;;;14.60;;
5456;SDS011;2751;49.802;9.944;2023-02-15T04:23:23;20.93;;;13.97;;
5456;SDS011;2751;49.802;9.944;2023-02-15T04:26:08;24.17;;;14.00;;
5456;SDS011;2751;49.802;9.944;2023-02-15T04:28:35;22.83;;;13.07;;
5456;SDS011;2751;49.802;9.944;2023-02-15T04:31:02;23.03;;;14.47;;
5456;SDS011;2751;49.802;9.944;2023-02-15T04:33:29;21.13;;;12.33;;
5456;SDS011;2751;49.802;9.944;2023-02-15T04:35:55;24.60;;;13.00;;
5456;SDS011;2751;49.802;9.944;2023-02-15T04:38:24;20.80;;;13.10;;
5456;SDS011;2751;49.802;9.944;2023-02-15T04:40:51;22.17;;;14.00;;
5456;SDS011;2751;49.802;9.944;2023-02-15T04:43:18;22.73;;;13.83;;
5456;SDS011;2751;49.802;9.944;2023-02-15T04:45:47;17.87;;;12.50;;
5456;SDS011;2751;49.802;9.944;2023-02-15T04:48:15;20.97;;;14.30;;
5456;SDS011;2751;49.802;9.944;2023-02-15T04:50:42;22.57;;;13.80;;
5456;SDS011;2751;49.802;9.944;2023-02-15T04:53:09;22.20;;;12.57;;
5456;SDS011;2751;49.802;9.944;2023-02-15T04:55:37;20.53;;;10.87;;
5456;SDS011;2751;49.802;9.944;2023-02-15T04:58:04;21.13;;;13.47;;
5456;SDS011;2751;49.802;9.944;2023-02-15T05:00:31;23.57;;;11.57;;
5456;SDS011;2751;49.802;9.944;2023-02-15T05:02:58;20.10;;;11.87;;
5456;SDS011;2751;49.802;9.944;2023-02-15T05:05:25;13.50;;;6.83;;
5456;SDS011;2751;49.802;9.944;2023-02-15T05:07:52;21.90;;;13.10;;
5456;SDS011;2751;49.802;9.944;2023-02-15T05:10:19;23.80;;;13.07;;
5456;SDS011;2751;49.802;9.944;2023-02-15T05:12:47;22.10;;;13.20;;
5456;SDS011;2751;49.802;9.944;2023-02-15T05:15:14;23.70;;;14.00;;
5456;SDS011;2751;49.802;9.944;2023-02-15T05:17:41;23.33;;;12.90;;
5456;SDS011;2751;49.802;9.944;2023-02-15T05:20:08;24.40;;;14.27;;
5456;SDS011;2751;49.802;9.944;2023-02-15T05:22:36;19.53;;;11.87;;
5456;SDS011;2751;49.802;9.944;2023-02-15T05:25:02;21.67;;;12.20;;
5456;SDS011;2751;49.802;9.944;2023-02-15T05:27:48;20.80;;;11.57;;
5456;SDS011;2751;49.802;9.944;2023-02-15T05:30:33;21.07;;;12.33;;
5456;SDS011;2751;49.802;9.944;2023-02-15T05:32:59;22.53;;;12.70;;
5456;SDS011;2751;49.802;9.944;2023-02-15T05:35:27;18.70;;;11.27;;
5456;SDS011;2751;49.802;9.944;2023-02-15T05:37:53;18.23;;;11.20;;
5456;SDS011;2751;49.802;9.944;2023-02-15T05:40:20;23.07;;;12.70;;
5456;SDS011;2751;49.802;9.944;2023-02-15T05:42:49;18.70;;;11.77;;
5456;SDS011;2751;49.802;9.944;2023-02-15T05:45:15;18.67;;;11.10;;
5456;SDS011;2751;49.802;9.944;2023-02-15T05:47:42;18.10;;;11.33;;
5456;SDS011;2751;49.802;9.944;2023-02-15T05:50:10;19.30;;;11.37;;
5456;SDS011;2751;49.802;9.944;2023-02-15T05:52:37;15.40;;;9.30;;
5456;SDS011;2751;49.802;9.944;2023-02-15T05:55:04;19.00;;;9.93;;
5456;SDS011;2751;49.802;9.944;2023-02-15T05:57:33;22.73;;;11.60;;
5456;SDS011;2751;49.802;9.944;2023-02-15T06:00:02;19.57;;;11.80;;
5456;SDS011;2751;49.802;9.944;2023-02-15T06:02:30;9.80;;;5.20;;
5456;SDS011;2751;49.802;9.944;2023-02-15T06:04:59;21.00;;;12.53;;
5456;SDS011;2751;49.802;9.944;2023-02-15T06:07:27;20.30;;;12.10;;
5456;SDS011;2751;49.802;9.944;2023-02-15T06:09:53;20.07;;;12.80;;
5456;SDS011;2751;49.802;9.944;2023-02-15T06:12:20;23.40;;;11.83;;
5456;SDS011;2751;49.802;9.944;2023-02-15T06:14:47;19.77;;;12.20;;
5456;SDS011;2751;49.802;9.944;2023-02-15T06:17:15;22.57;;;11.03;;
5456;SDS011;2751;49.802;9.944;2023-02-15T06:19:42;20.00;;;11.47;;
5456;SDS011;2751;49.802;9.944;2023-02-15T06:22:09;17.03;;;8.57;;
5456;SDS011;2751;49.802;9.944;2023-02-15T06:24:39;15.23;;;8.10;;
5456;SDS011;2751;49.802;9.944;2023-02-15T06:27:07;19.47;;;10.60;;
5456;SDS011;2751;49.802;9.944;2023-02-15T06:29:34;20.73;;;11.13;;
5456;SDS011;2751;49.802;9.944;2023-02-15T06:32:01;21.57;;;10.83;;
5456;SDS011;2751;49.802;9.944;2023-02-15T06:34:29;17.23;;;10.93;;
5456;SDS011;2751;49.802;9.944;2023-02-15T06:36:56;20.00;;;11.23;;
5456;SDS011;2751;49.802;9.944;2023-02-15T06:39:23;20.13;;;12.50;;
5456;SDS011;2751;49.802;9.944;2023-02-15T06:41:50;21.57;;;10.03;;
5456;SDS011;2751;49.802;9.944;2023-02-15T06:44:17;11.60;;;7.20;;
5456;SDS011;2751;49.802;9.944;2023-02-15T06:46:44;21.30;;;11.17;;
5456;SDS011;2751;49.802;9.944;2023-02-15T06:49:11;20.63;;;11.73;;
5456;SDS011;2751;49.802;9.944;2023-02-15T06:51:39;20.70;;;12.17;;
5456;SDS011;2751;49.802;9.944;2023-02-15T06:54:06;23.13;;;11.97;;
5456;SDS011;2751;49.802;9.944;2023-02-15T06:56:33;17.90;;;10.40;;
5456;SDS011;2751;49.802;9.944;2023-02-15T06:58:59;19.47;;;11.20;;
5456;SDS011;2751;49.802;9.944;2023-02-15T07:01:26;19.53;;;11.67;;
5456;SDS011;2751;49.802;9.944;2023-02-15T07:03:53;20.40;;;11.87;;
5456;SDS011;2751;49.802;9.944;2023-02-15T07:06:20;19.53;;;11.57;;
5456;SDS011;2751;49.802;9.944;2023-02-15T07:08:48;20.83;;;12.60;;
5456;SDS011;2751;49.802;9.944;2023-02-15T07:11:15;18.47;;;11.23;;
5456;SDS011;2751;49.802;9.944;2023-02-15T07:13:59;18.17;;;11.07;;
5456;SDS011;2751;49.802;9.944;2023-02-15T07:16:26;16.53;;;10.10;;
5456;SDS011;2751;49.802;9.944;2023-02-15T07:18:53;16.70;;;10.57;;
5456;SDS011;2751;49.802;9.944;2023-02-15T07:21:20;17.33;;;10.20;;
5456;SDS011;2751;49.802;9.944;2023-02-15T07:23:48;18.43;;;10.03;;
5456;SDS011;2751;49.802;9.944;2023-02-15T07:26:15;15.17;;;9.37;;
5456;SDS011;2751;49.802;9.944;2023-02-15T07:28:42;14.67;;;8.80;;
5456;SDS011;2751;49.802;9.944;2023-02-15T07:31:09;15.43;;;9.27;;
5456;SDS011;2751;49.802;9.944;2023-02-15T07:33:36;15.73;;;10.10;;
5456;SDS011;2751;49.802;9.944;2023-02-15T07:36:03;15.13;;;9.97;;
5456;SDS011;2751;49.802;9.944;2023-02-15T07:38:31;18.70;;;10.90;;
5456;SDS011;2751;49.802;9.944;2023-02-15T07:41:01;15.63;;;9.00;;
5456;SDS011;2751;49.802;9.944;2023-02-15T07:43:29;16.50;;;9.77;;
5456;SDS011;2751;49.802;9.944;2023-02-15T07:45:58;18.27;;;10.50;;
5456;SDS011;2751;49.802;9.944;2023-02-15T07:48:25;19.40;;;11.50;;
5456;SDS011;2751;49.802;9.944;2023-02-15T07:50:52;19.23;;;11.10;;
5456;SDS011;2751;49.802;9.944;2023-02-15T07:53:19;19.20;;;11.60;;
5456;SDS011;2751;49.802;9.944;2023-02-15T07:55:46;18.10;;;10.70;;
5456;SDS011;2751;49.802;9.944;2023-02-15T07:58:14;17.37;;;11.93;;
5456;SDS011;2751;49.802;9.944;2023-02-15T08:00:41;18.67;;;11.87;;
5456;SDS011;2751;49.802;9.944;2023-02-15T08:03:23;17.73;;;12.00;;
5456;SDS011;2751;49.802;9.944;2023-02-15T08:05:55;18.90;;;10.87;;
5456;SDS011;2751;49.802;9.944;2023-02-15T08:08:23;16.13;;;10.60;;
5456;SDS011;2751;49.802;9.944;2023-02-15T08:10:59;17.80;;;10.30;;
5456;SDS011;2751;49.802;9.944;2023-02-15T08:13:46;17.43;;;11.20;;
5456;SDS011;2751;49.802;9.944;2023-02-15T08:16:21;14.03;;;7.20;;
5456;SDS011;2751;49.802;9.944;2023-02-15T08:18:48;18.87;;;11.83;;
5456;SDS011;2751;49.802;9.944;2023-02-15T08:21:15;17.90;;;10.63;;
5456;SDS011;2751;49.802;9.944;2023-02-15T08:23:42;21.00;;;12.60;;
5456;SDS011;2751;49.802;9.944;2023-02-15T08:26:09;25.63;;;11.90;;
5456;SDS011;2751;49.802;9.944;2023-02-15T08:28:36;19.60;;;11.27;;
5456;SDS011;2751;49.802;9.944;2023-02-15T08:31:05;16.30;;;9.23;;
5456;SDS011;2751;49.802;9.944;2023-02-15T08:33:32;15.60;;;8.87;;
5456;SDS011;2751;49.802;9.944;2023-02-15T08:36:03;17.17;;;10.87;;
5456;SDS011;2751;49.802;9.944;2023-02-15T08:38:30;18.80;;;11.10;;
5456;SDS011;2751;49.802;9.944;2023-02-15T08:40:57;18.30;;;10.90;;
5456;SDS011;2751;49.802;9.944;2023-02-15T08:43:34;18.00;;;11.00;;
5456;SDS011;2751;49.802;9.944;2023-02-15T08:46:01;17.63;;;11.87;;
5456;SDS011;2751;49.802;9.944;2023-02-15T08:48:29;18.47;;;11.40;;
5456;SDS011;2751;49.802;9.944;2023-02-15T08:50:56;17.13;;;10.70;;
5456;SDS011;2751;49.802;9.944;2023-02-15T08:53:23;22.60;;;12.77;;
5456;SDS011;2751;49.802;9.944;2023-02-15T08:55:54;19.53;;;12.50;;
5456;SDS011;2751;49.802;9.944;2023-02-15T08:58:22;20.40;;;10.93;;
5456;SDS011;2751;49.802;9.944;2023-02-15T09:00:48;20.87;;;11.70;;
5456;SDS011;2751;49.802;9.944;2023-02-15T09:03:15;19.40;;;12.53;;
5456;SDS011;2751;49.802;9.944;2023-02-15T09:05:44;19.53;;;12.10;;
5456;SDS011;2751;49.802;9.944;2023-02-15T09:08:11;21.33;;;12.53;;
5456;SDS011;2751;49.802;9.944;2023-02-15T09:10:38;23.50;;;12.70;;
5456;SDS011;2751;49.802;9.944;2023-02-15T09:13:05;18.67;;;12.03;;
5456;SDS011;2751;49.802;9.944;2023-02-15T09:15:31;20.60;;;13.97;;
5456;SDS011;2751;49.802;9.944;2023-02-15T09:17:58;21.00;;;13.33;;
5456;SDS011;2751;49.802;9.944;2023-02-15T09:20:29;22.00;;;12.40;;
5456;SDS011;2751;49.802;9.944;2023-02-15T09:22:57;20.87;;;12.80;;
5456;SDS011;2751;49.802;9.944;2023-02-15T09:25:24;21.90;;;12.70;;
5456;SDS011;2751;49.802;9.944;2023-02-15T09:27:52;23.30;;;12.60;;
5456;SDS011;2751;49.802;9.944;2023-02-15T09:30:19;22.63;;;13.07;;
5456;SDS011;2751;49.802;9.944;2023-02-15T09:32:46;21.27;;;11.00;;
5456;SDS011;2751;49.802;9.944;2023-02-15T09:35:14;20.50;;;12.80;;
5456;SDS011;2751;49.802;9.944;2023-02-15T09:37:40;20.97;;;12.13;;
5456;SDS011;2751;49.802;9.944;2023-02-15T09:40:10;23.30;;;13.90;;
5456;SDS011;2751;49.802;9.944;2023-02-15T09:42:45;20.77;;;12.03;;
5456;SDS011;2751;49.802;9.944;2023-02-15T09:45:41;19.03;;;11.17;;
5456;SDS011;2751;49.802;9.944;2023-02-15T09:48:36;19.07;;;10.47;;
5456;SDS011;2751;49.802;9.944;2023-02-15T09:51:09;20.27;;;12.53;;
5456;SDS011;2751;49.802;9.944;2023-02-15T09:53:58;15.27;;;8.87;;
5456;SDS011;2751;49.802;9.944;2023-02-15T09:56:38;18.83;;;11.60;;
5456;SDS011;2751;49.802;9.944;2023-02-15T09:59:10;20.97;;;13.40;;
5456;SDS011;2751;49.802;9.944;2023-02-15T10:01:45;20.17;;;11.40;;
5456;SDS011;2751;49.802;9.944;2023-02-15T10:04:23;18.27;;;11.63;;
5456;SDS011;2751;49.802;9.944;2023-02-15T10:07:04;22.97;;;12.33;;
5456;SDS011;2751;49.802;9.944;2023-02-15T10:09:42;19.53;;;11.60;;
5456;SDS011;2751;49.802;9.944;2023-02-15T10:12:31;20.30;;;11.47;;
5456;SDS011;2751;49.802;9.944;2023-02-15T10:15:16;21.50;;;12.67;;
5456;SDS011;2751;49.802;9.944;2023-02-15T10:20:54;22.63;;;14.30;;
5456;SDS011;2751;49.802;9.944;2023-02-15T10:23:28;24.50;;;15.07;;
5456;SDS011;2751;49.802;9.944;2023-02-15T10:26:11;21.87;;;11.50;;
5456;SDS011;2751;49.802;9.944;2023-02-15T10:28:46;19.10;;;11.47;;
5456;SDS011;2751;49.802;9.944;2023-02-15T10:31:19;19.57;;;11.20;;
5456;SDS011;2751;49.802;9.944;2023-02-15T10:33:52;20.67;;;12.00;;
5456;SDS011;2751;49.802;9.944;2023-02-15T10:36:36;20.87;;;12.03;;
5456;SDS011;2751;49.802;9.944;2023-02-15T10:39:16;18.87;;;11.70;;
5456;SDS011;2751;49.802;9.944;2023-02-15T10:41:52;18.87;;;10.77;;
5456;SDS011;2751;49.802;9.944;2023-02-15T10:44:32;20.83;;;12.23;;
5456;SDS011;2751;49.802;9.944;2023-02-15T10:50:06;16.23;;;8.73;;
5456;SDS011;2751;49.802;9.944;2023-02-15T10:52:47;18.60;;;11.07;;
5456;SDS011;2751;49.802;9.944;2023-02-15T10:55:28;21.67;;;12.53;;
5456;SDS011;2751;49.802;9.944;2023-02-15T10:58:06;22.90;;;13.23;;
5456;SDS011;2751;49.802;9.944;2023-02-15T11:00:43;20.80;;;11.93;;
5456;SDS011;2751;49.802;9.944;2023-02-15T11:03:19;22.03;;;13.27;;
5456;SDS011;2751;49.802;9.944;2023-02-15T11:06:02;22.57;;;12.80;;
5456;SDS011;2751;49.802;9.944;2023-02-15T11:08:35;23.70;;;12.07;;
5456;SDS011;2751;49.802;9.944;2023-02-15T11:11:06;23.20;;;14.00;;
5456;SDS011;2751;49.802;9.944;2023-02-15T11:13:36;21.13;;;12.57;;
5456;SDS011;2751;49.802;9.944;2023-02-15T11:16:08;22.63;;;13.37;;
5456;SDS011;2751;49.802;9.944;2023-02-15T11:18:40;22.43;;;12.77;;
5456;SDS011;2751;49.802;9.944;2023-02-15T11:21:10;21.13;;;13.27;;
5456;SDS011;2751;49.802;9.944;2023-02-15T11:23:40;20.33;;;10.67;;
5456;SDS011;2751;49.802;9.944;2023-02-15T11:26:11;20.47;;;13.07;;
5456;SDS011;2751;49.802;9.944;2023-02-15T11:28:42;21.27;;;13.10;;
5456;SDS011;2751;49.802;9.944;2023-02-15T11:31:17;20.80;;;12.43;;
5456;SDS011;2751;49.802;9.944;2023-02-15T11:33:48;19.10;;;11.17;;
5456;SDS011;2751;49.802;9.944;2023-02-15T11:36:20;23.67;;;14.33;;
5456;SDS011;2751;49.802;9.944;2023-02-15T11:38:52;22.73;;;13.27;;
5456;SDS011;2751;49.802;9.944;2023-02-15T11:41:24;21.20;;;12.73;;
5456;SDS011;2751;49.802;9.944;2023-02-15T11:43:56;20.00;;;13.07;;
5456;SDS011;2751;49.802;9.944;2023-02-15T11:46:30;19.20;;;12.07;;
5456;SDS011;2751;49.802;9.944;2023-02-15T11:48:57;23.53;;;14.10;;
5456;SDS011;2751;49.802;9.944;2023-02-15T11:51:24;25.70;;;13.10;;
5456;SDS011;2751;49.802;9.944;2023-02-15T11:53:53;18.13;;;12.40;;
5456;SDS011;2751;49.802;9.944;2023-02-15T11:56:22;19.20;;;12.17;;
5456;SDS011;2751;49.802;9.944;2023-02-15T11:58:51;21.77;;;14.03;;
5456;SDS011;2751;49.802;9.944;2023-02-15T12:01:23;24.77;;;15.63;;
5456;SDS011;2751;49.802;9.944;2023-02-15T12:03:58;19.50;;;13.37;;
5456;SDS011;2751;49.802;9.944;2023-02-15T12:06:32;19.37;;;12.87;;
5456;SDS011;2751;49.802;9.944;2023-02-15T12:09:02;21.43;;;14.27;;
5456;SDS011;2751;49.802;9.944;2023-02-15T12:11:36;19.10;;;12.80;;
5456;SDS011;2751;49.802;9.944;2023-02-15T12:14:05;25.30;;;12.73;;
5456;SDS011;2751;49.802;9.944;2023-02-15T12:16:39;23.77;;;13.57;;
5456;SDS011;2751;49.802;9.944;2023-02-15T12:19:13;22.73;;;14.30;;
5456;SDS011;2751;49.802;9.944;2023-02-15T12:21:53;22.60;;;13.93;;
5456;SDS011;2751;49.802;9.944;2023-02-15T12:24:21;22.23;;;13.00;;
5456;SDS011;2751;49.802;9.944;2023-02-15T12:26:58;22.40;;;13.80;;
5456;SDS011;2751;49.802;9.944;2023-02-15T12:29:27;21.77;;;12.43;;
5456;SDS011;2751;49.802;9.944;2023-02-15T12:31:56;23.50;;;14.03;;
5456;SDS011;2751;49.802;9.944;2023-02-15T12:34:26;22.10;;;13.90;;
5456;SDS011;2751;49.802;9.944;2023-02-15T12:36:57;24.70;;;13.80;;
5456;SDS011;2751;49.802;9.944;2023-02-15T12:39:28;21.10;;;13.80;;
5456;SDS011;2751;49.802;9.944;2023-02-15T12:41:57;21.10;;;13.63;;
5456;SDS011;2751;49.802;9.944;2023-02-15T12:44:28;22.57;;;13.80;;
5456;SDS011;2751;49.802;9.944;2023-02-15T12:46:57;24.27;;;12.93;;
5456;SDS011;2751;49.802;9.944;2023-02-15T12:49:27;24.47;;;14.33;;
5456;SDS011;2751;49.802;9.944;2023-02-15T12:51:55;22.03;;;13.40;;
5456;SDS011;2751;49.802;9.944;2023-02-15T12:54:31;24.00;;;15.03;;
5456;SDS011;2751;49.802;9.944;2023-02-15T12:57:21;22.83;;;13.73;;
5456;SDS011;2751;49.802;9.944;2023-02-15T12:59:52;21.07;;;13.60;;
5456;SDS011;2751;49.802;9.944;2023-02-15T13:02:23;20.77;;;12.97;;
5456;SDS011;2751;49.802;9.944;2023-02-15T13:04:53;23.60;;;14.40;;
5456;SDS011;2751;49.802;9.944;2023-02-15T13:07:23;23.80;;;13.83;;
5456;SDS011;2751;49.802;9.944;2023-02-15T13:09:56;24.43;;;14.00;;
5456;SDS011;2751;49.802;9.944;2023-02-15T13:12:24;19.93;;;12.73;;
5456;SDS011;2751;49.802;9.944;2023-02-15T13:14:55;23.60;;;14.80;;
5456;SDS011;2751;49.802;9.944;2023-02-15T13:17:24;21.37;;;13.27;;
5456;SDS011;2751;49.802;9.944;2023-02-15T13:19:56;23.50;;;13.53;;
5456;SDS011;2751;49.802;9.944;2023-02-15T13:22:28;21.93;;;13.97;;
5456;SDS011;2751;49.802;9.944;2023-02-15T13:25:01;22.70;;;14.93;;
5456;SDS011;2751;49.802;9.944;2023-02-15T13:27:35;23.40;;;15.00;;
5456;SDS011;2751;49.802;9.944;2023-02-15T13:30:10;20.60;;;13.53;;
5456;SDS011;2751;49.802;9.944;2023-02-15T13:32:46;24.20;;;14.03;;
5456;SDS011;2751;49.802;9.944;2023-02-15T13:35:17;20.07;;;13.30;;
5456;SDS011;2751;49.802;9.944;2023-02-15T13:37:49;19.63;;;13.37;;
5456;SDS011;2751;49.802;9.944;2023-02-15T13:40:25;18.20;;;13.70;;
5456;SDS011;2751;49.802;9.944;2023-02-15T13:43:00;23.83;;;14.67;;
5456;SDS011;2751;49.802;9.944;2023-02-15T13:45:36;21.57;;;13.80;;
5456;SDS011;2751;49.802;9.944;2023-02-15T13:48:12;19.70;;;14.00;;
5456;SDS011;2751;49.802;9.944;2023-02-15T13:50:53;23.60;;;13.60;;
5456;SDS011;2751;49.802;9.944;2023-02-15T13:56:35;18.53;;;13.30;;
5456;SDS011;2751;49.802;9.944;2023-02-15T13:59:22;26.53;;;15.00;;
5456;SDS011;2751;49.802;9.944;2023-02-15T14:02:04;22.37;;;14.57;;
5456;SDS011;2751;49.802;9.944;2023-02-15T14:05:01;20.83;;;13.97;;
5456;SDS011;2751;49.802;9.944;2023-02-15T14:07:43;22.77;;;14.97;;
5456;SDS011;2751;49.802;9.944;2023-02-15T14:10:31;23.50;;;14.60;;
5456;SDS011;2751;49.802;9.944;2023-02-15T14:13:09;20.13;;;14.10;;
5456;SDS011;2751;49.802;9.944;2023-02-15T14:16:00;27.20;;;15.60;;
5456;SDS011;2751;49.802;9.944;2023-02-15T14:18:34;27.63;;;16.47;;
5456;SDS011;2751;49.802;9.944;2023-02-15T14:21:07;22.70;;;13.60;;
5456;SDS011;2751;49.802;9.944;2023-02-15T14:23:47;27.10;;;15.67;;
5456;SDS011;2751;49.802;9.944;2023-02-15T14:26:29;20.60;;;14.60;;
5456;SDS011;2751;49.802;9.944;2023-02-15T14:29:04;22.30;;;15.60;;
5456;SDS011;2751;49.802;9.944;2023-02-15T14:31:43;22.07;;;14.90;;
5456;SDS011;2751;49.802;9.944;2023-02-15T14:34:17;20.63;;;14.33;;
5456;SDS011;2751;49.802;9.944;2023-02-15T14:36:47;24.17;;;14.80;;
5456;SDS011;2751;49.802;9.944;2023-02-15T14:39:18;21.77;;;14.00;;
5456;SDS011;2751;49.802;9.944;2023-02-15T14:42:12;28.97;;;15.40;;
5456;SDS011;2751;49.802;9.944;2023-02-15T14:44:45;23.63;;;15.47;;
5456;SDS011;2751;49.802;9.944;2023-02-15T14:47:18;21.53;;;13.13;;
5456;SDS011;2751;49.802;9.944;2023-02-15T14:49:48;27.33;;;14.60;;
5456;SDS011;2751;49.802;9.944;2023-02-15T14:52:15;21.67;;;14.83;;
5456;SDS011;2751;49.802;9.944;2023-02-15T14:57:57;25.90;;;15.53;;
5456;SDS011;2751;49.802;9.944;2023-02-15T15:00:33;23.10;;;15.13;;
5456;SDS011;2751;49.802;9.944;2023-02-15T15:03:09;26.13;;;15.03;;
5456;SDS011;2751;49.802;9.944;2023-02-15T15:05:46;20.40;;;14.30;;
5456;SDS011;2751;49.802;9.944;2023-02-15T15:08:21;21.50;;;14.67;;
5456;SDS011;2751;49.802;9.944;2023-02-15T15:10:54;23.43;;;15.50;;
5456;SDS011;2751;49.802;9.944;2023-02-15T15:13:35;25.23;;;15.53;;
5456;SDS011;2751;49.802;9.944;2023-02-15T15:16:29;23.17;;;14.43;;
5456;SDS011;2751;49.802;9.944;2023-02-15T15:19:12;21.87;;;14.47;;
5456;SDS011;2751;49.802;9.944;2023-02-15T15:22:02;22.13;;;13.37;;
5456;SDS011;2751;49.802;9.944;2023-02-15T15:24:45;25.53;;;15.57;;
5456;SDS011;2751;49.802;9.944;2023-02-15T15:33:46;21.03;;;14.50;;
5456;SDS011;2751;49.802;9.944;2023-02-15T15:37:01;20.77;;;14.10;;
5456;SDS011;2751;49.802;9.944;2023-02-15T15:43:09;23.07;;;15.20;;
5456;SDS011;2751;49.802;9.944;2023-02-15T15:46:12;23.97;;;15.50;;
5456;SDS011;2751;49.802;9.944;2023-02-15T15:48:50;28.23;;;16.27;;